createdAt,value
2018-05-05T00:01:25.367Z,101888.69
2018-05-05T00:03:52.773Z,101894.53
2018-05-05T00:06:20.217Z,101894.17
2018-05-05T00:08:47.673Z,101890.99
2018-05-05T00:11:15.157Z,101897.28
2018-05-05T00:13:42.482Z,101894.92
2018-05-05T00:16:09.880Z,101903.88
2018-05-05T00:18:37.304Z,101905.34
2018-05-05T00:21:04.684Z,101900.81
2018-05-05T00:23:32.084Z,101899.83
2018-05-05T00:25:59.568Z,101898.88
2018-05-05T00:28:27.016Z,101893.16
2018-05-05T00:30:54.434Z,101898.24
2018-05-05T00:33:21.835Z,101895.13
2018-05-05T00:35:49.289Z,101895.09
2018-05-05T00:38:16.692Z,101900.09
2018-05-05T00:40:44.085Z,101903.59
2018-05-05T00:43:11.501Z,101903.47
2018-05-05T00:45:38.901Z,101903.62
2018-05-05T00:48:06.301Z,101903.24
2018-05-05T00:50:33.700Z,101904.78
2018-05-05T00:53:01.305Z,101909.23
2018-05-05T00:55:28.692Z,101910.41
2018-05-05T00:57:56.250Z,101911.45
2018-05-05T01:00:23.656Z,101914.36
2018-05-05T01:02:51.069Z,101912.44
2018-05-05T01:05:18.464Z,101908.55
2018-05-05T01:07:46.855Z,101916.42
2018-05-05T01:10:14.253Z,101919.33
2018-05-05T01:12:41.690Z,101920.84
2018-05-05T01:15:09.085Z,101916.69
2018-05-05T01:17:36.480Z,101913.61
2018-05-05T01:20:03.869Z,101918.47
2018-05-05T01:22:31.304Z,101914.97
2018-05-05T01:24:58.709Z,101912.00
2018-05-05T01:27:26.105Z,101914.46
2018-05-05T01:29:53.509Z,101917.34
2018-05-05T01:32:20.900Z,101919.60
2018-05-05T01:34:48.297Z,101921.98
2018-05-05T01:37:15.687Z,101920.16
2018-05-05T01:39:43.101Z,101923.30
2018-05-05T01:42:10.478Z,101929.03
2018-05-05T01:44:37.906Z,101928.19
2018-05-05T01:47:05.393Z,101930.86
2018-05-05T01:49:32.789Z,101931.23
2018-05-05T01:52:00.292Z,101929.35
2018-05-05T01:54:27.710Z,101926.63
2018-05-05T01:56:55.472Z,101929.39
2018-05-05T01:59:22.862Z,101923.73
2018-05-05T02:01:50.262Z,101929.53
2018-05-05T02:04:17.649Z,101932.36
2018-05-05T02:06:45.050Z,101931.65
2018-05-05T02:09:12.441Z,101930.55
2018-05-05T02:11:41.582Z,101930.86
2018-05-05T02:14:08.957Z,101922.29
2018-05-05T02:16:36.432Z,101925.01
2018-05-05T02:19:03.813Z,101930.00
2018-05-05T02:21:31.244Z,101929.00
2018-05-05T02:23:58.633Z,101936.14
2018-05-05T02:26:26.046Z,101927.72
2018-05-05T02:28:53.424Z,101926.06
2018-05-05T02:31:20.860Z,101929.43
2018-05-05T02:33:48.260Z,101931.67
2018-05-05T02:36:15.678Z,101929.19
2018-05-05T02:38:43.132Z,101924.62
2018-05-05T02:41:10.527Z,101922.14
2018-05-05T02:43:37.921Z,101925.13
2018-05-05T02:46:05.321Z,101927.71
2018-05-05T02:48:32.702Z,101926.95
2018-05-05T02:51:00.205Z,101926.17
2018-05-05T02:53:27.666Z,101920.91
2018-05-05T02:55:55.053Z,101924.08
2018-05-05T02:58:22.473Z,101927.14
2018-05-05T03:00:49.869Z,101930.51
2018-05-05T03:03:17.287Z,101933.88
2018-05-05T03:05:44.721Z,101929.38
2018-05-05T03:08:12.089Z,101935.59
2018-05-05T03:10:39.483Z,101933.52
2018-05-05T03:13:06.885Z,101931.46
2018-05-05T03:15:34.274Z,101931.83
2018-05-05T03:18:01.717Z,101921.78
2018-05-05T03:20:29.168Z,101921.63
2018-05-05T03:22:56.584Z,101922.53
2018-05-05T03:25:23.972Z,101918.42
2018-05-05T03:27:51.355Z,101919.39
2018-05-05T03:30:18.745Z,101921.33
2018-05-05T03:32:46.150Z,101912.30
2018-05-05T03:35:13.545Z,101915.86
2018-05-05T03:37:40.933Z,101911.89
2018-05-05T03:40:09.138Z,101914.95
2018-05-05T03:42:36.545Z,101916.94
2018-05-05T03:45:03.937Z,101921.75
2018-05-05T03:47:31.338Z,101917.27
2018-05-05T03:49:58.729Z,101931.87
2018-05-05T03:52:26.126Z,101926.02
2018-05-05T03:54:53.512Z,101933.47
2018-05-05T03:57:20.990Z,101934.67
2018-05-05T04:00:00.478Z,101945.41
2018-05-05T04:02:39.685Z,101940.29
2018-05-05T04:08:18.129Z,101939.83
2018-05-05T04:10:45.519Z,101932.98
2018-05-05T04:13:12.937Z,101934.63
2018-05-05T04:15:40.409Z,101942.31
2018-05-05T04:18:07.801Z,101947.29
2018-05-05T04:20:35.184Z,101950.81
2018-05-05T04:23:02.599Z,101947.71
2018-05-05T04:25:29.988Z,101947.89
2018-05-05T04:27:57.385Z,101952.59
2018-05-05T04:30:24.791Z,101963.72
2018-05-05T04:32:52.193Z,101956.15
2018-05-05T04:35:19.572Z,101949.59
2018-05-05T04:37:46.995Z,101951.76
2018-05-05T04:40:14.377Z,101947.14
2018-05-05T04:42:41.786Z,101953.80
2018-05-05T04:45:09.173Z,101948.57
2018-05-05T04:47:36.578Z,101948.37
2018-05-05T04:50:03.948Z,101949.05
2018-05-05T04:52:31.430Z,101951.38
2018-05-05T04:54:58.804Z,101947.45
2018-05-05T04:57:26.216Z,101952.52
2018-05-05T04:59:53.693Z,101943.09
2018-05-05T05:02:21.090Z,101947.18
2018-05-05T05:04:48.484Z,101942.77
2018-05-05T05:07:15.957Z,101944.92
2018-05-05T05:09:43.413Z,101946.79
2018-05-05T05:12:10.827Z,101943.11
2018-05-05T05:14:38.209Z,101949.82
2018-05-05T05:17:05.685Z,101946.92
2018-05-05T05:19:33.156Z,101942.99
2018-05-05T05:22:00.577Z,101947.93
2018-05-05T05:24:27.968Z,101951.74
2018-05-05T05:26:55.367Z,101959.63
2018-05-05T05:29:22.766Z,101954.58
2018-05-05T05:31:50.204Z,101954.47
2018-05-05T05:34:17.594Z,101954.89
2018-05-05T05:36:45.029Z,101959.49
2018-05-05T05:39:12.417Z,101948.80
2018-05-05T05:41:39.819Z,101952.91
2018-05-05T05:44:07.209Z,101952.09
2018-05-05T05:46:34.672Z,101955.59
2018-05-05T05:49:02.044Z,101958.06
2018-05-05T05:51:29.428Z,101959.93
2018-05-05T05:53:56.836Z,101968.36
2018-05-05T05:56:24.218Z,101969.41
2018-05-05T05:58:51.734Z,101979.36
2018-05-05T06:01:19.124Z,101986.52
2018-05-05T06:03:46.540Z,101987.98
2018-05-05T06:06:14.002Z,101986.87
2018-05-05T06:08:41.393Z,102002.04
2018-05-05T06:11:08.809Z,101999.26
2018-05-05T06:13:36.209Z,102003.39
2018-05-05T06:16:03.593Z,102008.48
2018-05-05T06:18:31.069Z,102012.42
2018-05-05T06:20:58.462Z,102011.80
2018-05-05T06:23:25.857Z,102012.73
2018-05-05T06:25:53.249Z,102013.91
2018-05-05T06:28:20.678Z,102020.49
2018-05-05T06:30:48.147Z,102020.92
2018-05-05T06:33:15.553Z,102022.66
2018-05-05T06:35:42.949Z,102025.98
2018-05-05T06:38:10.352Z,102031.04
2018-05-05T06:40:37.817Z,102042.30
2018-05-05T06:43:05.230Z,102048.50
2018-05-05T06:45:32.737Z,102054.00
2018-05-05T06:48:00.190Z,102061.02
2018-05-05T06:50:27.574Z,102062.26
2018-05-05T06:52:54.964Z,102070.43
2018-05-05T06:55:22.369Z,102069.98
2018-05-05T06:57:49.808Z,102067.56
2018-05-05T07:00:17.217Z,102067.79
2018-05-05T07:02:44.617Z,102067.23
2018-05-05T07:05:12.013Z,102069.72
2018-05-05T07:07:39.416Z,102069.47
2018-05-05T07:10:06.853Z,102074.70
2018-05-05T07:12:34.356Z,102076.44
2018-05-05T07:15:01.750Z,102079.45
2018-05-05T07:17:29.228Z,102075.51
2018-05-05T07:19:56.609Z,102083.36
2018-05-05T07:22:24.082Z,102074.83
2018-05-05T07:24:51.483Z,102073.77
2018-05-05T07:27:18.877Z,102067.41
2018-05-05T07:29:46.278Z,102067.64
2018-05-05T07:32:13.776Z,102068.53
2018-05-05T07:34:41.260Z,102065.24
2018-05-05T07:37:08.641Z,102062.91
2018-05-05T07:39:36.078Z,102061.45
2018-05-05T07:42:03.528Z,102060.82
2018-05-05T07:44:30.995Z,102063.39
2018-05-05T07:46:58.380Z,102058.31
2018-05-05T07:49:25.799Z,102055.11
2018-05-05T07:51:53.180Z,102051.17
2018-05-05T07:54:20.622Z,102039.50
2018-05-05T07:56:48.013Z,102040.97
2018-05-05T07:59:15.429Z,102042.19
2018-05-05T08:01:42.813Z,102031.92
2018-05-05T08:04:10.246Z,102039.61
2018-05-05T08:06:37.619Z,102034.41
2018-05-05T08:09:05.021Z,102036.58
2018-05-05T08:11:32.514Z,102027.09
2018-05-05T08:13:59.916Z,102031.45
2018-05-05T08:16:27.315Z,102029.41
2018-05-05T08:18:54.769Z,102035.89
2018-05-05T08:21:22.165Z,102036.79
2018-05-05T08:23:49.570Z,102041.29
2018-05-05T08:26:17.041Z,102043.59
2018-05-05T08:28:44.438Z,102038.52
2018-05-05T08:31:11.838Z,102042.45
2018-05-05T08:33:39.246Z,102049.32
2018-05-05T08:36:06.641Z,102051.26
2018-05-05T08:38:34.036Z,102055.98
2018-05-05T08:41:01.473Z,102053.86
2018-05-05T08:43:28.993Z,102050.20
2018-05-05T08:45:56.292Z,102059.76
2018-05-05T08:48:23.685Z,102064.91
2018-05-05T08:50:51.062Z,102054.91
2018-05-05T08:53:18.493Z,102057.52
2018-05-05T08:55:45.915Z,102056.33
2018-05-05T08:58:13.333Z,102058.25
2018-05-05T09:00:40.739Z,102051.17
2018-05-05T09:03:08.149Z,102055.59
2018-05-05T09:05:35.529Z,102052.49
2018-05-05T09:08:02.997Z,102054.41
2018-05-05T09:10:30.457Z,102053.44
2018-05-05T09:12:57.833Z,102056.83
2018-05-05T09:15:25.261Z,102055.73
2018-05-05T09:17:52.710Z,102059.55
2018-05-05T09:20:20.097Z,102058.62
2018-05-05T09:22:47.482Z,102055.16
2018-05-05T09:25:14.877Z,102054.03
2018-05-05T09:27:42.271Z,102045.40
2018-05-05T09:30:09.677Z,102049.46
2018-05-05T09:32:37.099Z,102039.56
2018-05-05T09:35:04.500Z,102036.84
2018-05-05T09:37:31.886Z,102042.41
2018-05-05T09:39:59.286Z,102030.31
2018-05-05T09:42:26.677Z,102032.09
2018-05-05T09:44:54.157Z,102031.81
2018-05-05T09:47:21.540Z,102028.88
2018-05-05T09:49:49.075Z,102034.91
2018-05-05T09:52:16.470Z,102036.83
2018-05-05T09:54:43.975Z,102025.59
2018-05-05T09:57:11.371Z,102026.61
2018-05-05T09:59:39.189Z,102021.38
2018-05-05T10:02:06.585Z,102020.04
2018-05-05T10:04:33.989Z,102016.89
2018-05-05T10:07:01.390Z,102022.41
2018-05-05T10:09:28.804Z,102018.59
2018-05-05T10:11:56.272Z,102023.61
2018-05-05T10:14:23.680Z,102023.97
2018-05-05T10:16:51.065Z,102022.44
2018-05-05T10:19:18.483Z,102024.34
2018-05-05T10:21:45.877Z,102024.42
2018-05-05T10:24:13.278Z,102014.93
2018-05-05T10:26:40.674Z,102018.49
2018-05-05T10:29:08.054Z,102012.73
2018-05-05T10:31:35.490Z,102005.63
2018-05-05T10:34:02.869Z,102001.31
2018-05-05T10:36:30.336Z,101998.70
2018-05-05T10:38:57.723Z,102001.52
2018-05-05T10:41:25.121Z,101998.86
2018-05-05T10:43:52.604Z,101993.73
2018-05-05T10:46:19.999Z,101994.50
2018-05-05T10:48:47.381Z,101986.78
2018-05-05T10:51:14.829Z,101984.34
2018-05-05T10:53:42.165Z,101985.73
2018-05-05T10:56:09.581Z,101990.64
2018-05-05T10:58:37.037Z,101979.43
2018-05-05T11:01:04.503Z,101990.92
2018-05-05T11:03:31.967Z,101992.93
2018-05-05T11:05:59.409Z,101984.53
2018-05-05T11:08:26.822Z,101981.89
2018-05-05T11:10:54.188Z,101973.86
2018-05-05T11:13:21.590Z,101977.91
2018-05-05T11:15:49.038Z,101977.04
2018-05-05T11:18:16.425Z,101982.31
2018-05-05T11:20:43.841Z,101971.52
2018-05-05T11:23:11.308Z,101968.47
2018-05-05T11:25:38.702Z,101976.30
2018-05-05T11:28:06.121Z,101970.13
2018-05-05T11:30:33.521Z,101968.08
2018-05-05T11:33:00.957Z,101963.91
2018-05-05T11:35:28.384Z,101962.58
2018-05-05T11:37:55.867Z,101966.69
2018-05-05T11:40:23.277Z,101963.02
2018-05-05T11:42:50.666Z,101956.64
2018-05-05T11:45:18.069Z,101964.34
2018-05-05T11:47:45.473Z,101956.82
2018-05-05T11:50:12.923Z,101961.59
2018-05-05T11:52:40.389Z,101956.27
2018-05-05T11:55:07.797Z,101965.66
2018-05-05T11:57:35.200Z,101957.22
2018-05-05T12:00:02.665Z,101961.66
2018-05-05T12:02:30.090Z,101948.09
2018-05-05T12:04:57.486Z,101956.45
2018-05-05T12:07:24.892Z,101954.17
2018-05-05T12:09:52.414Z,101950.43
2018-05-05T12:12:19.845Z,101949.25
2018-05-05T12:14:47.241Z,101955.17
2018-05-05T12:17:14.658Z,101949.36
2018-05-05T12:19:42.050Z,101946.84
2018-05-05T12:22:09.470Z,101952.41
2018-05-05T12:24:36.839Z,101952.28
2018-05-05T12:27:04.259Z,101950.67
2018-05-05T12:29:31.834Z,101944.45
2018-05-05T12:31:59.197Z,101942.84
2018-05-05T12:34:26.662Z,101951.72
2018-05-05T12:36:54.112Z,101940.53
2018-05-05T12:39:21.529Z,101940.14
2018-05-05T12:41:49.038Z,101941.70
2018-05-05T12:44:16.429Z,101943.34
2018-05-05T12:46:43.828Z,101939.23
2018-05-05T12:49:11.216Z,101945.33
2018-05-05T12:51:38.629Z,101941.55
2018-05-05T12:54:06.037Z,101931.33
2018-05-05T12:56:33.457Z,101939.38
2018-05-05T12:59:00.864Z,101939.59
2018-05-05T13:01:28.326Z,101933.06
2018-05-05T13:03:55.741Z,101933.44
2018-05-05T13:08:44.273Z,101934.87
2018-05-05T13:11:11.669Z,101926.81
2018-05-05T13:13:39.162Z,101922.31
2018-05-05T13:16:06.573Z,101920.41
2018-05-05T13:18:33.973Z,101913.86
2018-05-05T13:21:01.403Z,101912.42
2018-05-05T13:23:28.777Z,101920.14
2018-05-05T13:25:56.650Z,101910.25
2018-05-05T13:28:24.105Z,101912.67
2018-05-05T13:30:51.577Z,101908.24
2018-05-05T13:33:19.063Z,101906.12
2018-05-05T13:35:46.491Z,101913.66
2018-05-05T13:38:13.883Z,101903.90
2018-05-05T13:40:41.273Z,101913.80
2018-05-05T13:43:08.665Z,101902.16
2018-05-05T13:45:36.140Z,101898.20
2018-05-05T13:48:03.514Z,101902.16
2018-05-05T13:50:30.934Z,101897.52
2018-05-05T13:52:58.388Z,101885.62
2018-05-05T13:55:25.848Z,101892.94
2018-05-05T13:57:53.270Z,101894.93
2018-05-05T14:00:20.649Z,101888.41
2018-05-05T14:02:48.073Z,101880.55
2018-05-05T14:05:15.497Z,101877.84
2018-05-05T14:07:42.906Z,101874.96
2018-05-05T14:10:10.300Z,101883.17
2018-05-05T14:12:37.708Z,101870.47
2018-05-05T14:15:05.118Z,101871.63
2018-05-05T14:17:32.529Z,101870.37
2018-05-05T14:19:59.926Z,101856.91
2018-05-05T14:22:27.330Z,101857.48
2018-05-05T14:24:54.773Z,101845.91
2018-05-05T14:27:22.170Z,101859.62
2018-05-05T14:29:49.646Z,101853.73
2018-05-05T14:32:17.054Z,101853.75
2018-05-05T14:34:44.473Z,101849.65
2018-05-05T14:37:11.870Z,101848.25
2018-05-05T14:39:39.250Z,101841.56
2018-05-05T14:42:06.661Z,101843.22
2018-05-05T14:44:34.065Z,101844.73
2018-05-05T14:47:01.546Z,101845.33
2018-05-05T14:49:28.933Z,101842.52
2018-05-05T14:51:56.333Z,101840.28
2018-05-05T14:54:23.732Z,101839.56
2018-05-05T14:56:51.129Z,101836.81
2018-05-05T14:59:18.621Z,101837.09
2018-05-05T15:01:46.118Z,101837.14
2018-05-05T15:04:13.510Z,101840.19
2018-05-05T15:06:40.933Z,101835.18
2018-05-05T15:09:08.334Z,101820.14
2018-05-05T15:11:35.827Z,101823.90
2018-05-05T15:14:03.229Z,101823.80
2018-05-05T15:16:30.734Z,101821.45
2018-05-05T15:18:58.126Z,101822.19
2018-05-05T15:21:25.557Z,101822.58
2018-05-05T15:23:53.009Z,101824.69
2018-05-05T15:26:20.355Z,101829.37
2018-05-05T15:28:47.819Z,101831.79
2018-05-05T15:31:15.200Z,101831.25
2018-05-05T15:33:42.653Z,101829.56
2018-05-05T15:36:10.062Z,101830.34
2018-05-05T15:38:37.536Z,101833.47
2018-05-05T15:41:04.937Z,101833.59
2018-05-05T15:43:32.353Z,101826.87
2018-05-05T15:45:59.740Z,101820.45
2018-05-05T15:48:27.145Z,101822.88
2018-05-05T15:50:54.570Z,101816.94
2018-05-05T15:53:21.978Z,101817.38
2018-05-05T15:55:49.369Z,101819.66
2018-05-05T15:58:16.793Z,101822.49
2018-05-05T16:00:44.172Z,101820.55
2018-05-05T16:03:11.617Z,101816.30
2018-05-05T16:05:39.017Z,101818.17
2018-05-05T16:08:06.509Z,101823.34
2018-05-05T16:10:33.981Z,101819.26
2018-05-05T16:13:01.381Z,101810.05
2018-05-05T16:15:28.774Z,101815.89
2018-05-05T16:17:56.255Z,101822.56
2018-05-05T16:20:23.642Z,101811.98
2018-05-05T16:22:51.037Z,101819.80
2018-05-05T16:25:18.508Z,101810.53
2018-05-05T16:27:45.920Z,101813.22
2018-05-05T16:30:13.328Z,101814.36
2018-05-05T16:32:40.713Z,101819.13
2018-05-05T16:35:08.207Z,101812.63
2018-05-05T16:37:35.614Z,101810.58
2018-05-05T16:40:03.989Z,101808.38
2018-05-05T16:42:31.417Z,101809.19
2018-05-05T16:44:58.810Z,101811.45
2018-05-05T16:47:26.196Z,101812.30
2018-05-05T16:49:53.606Z,101807.89
2018-05-05T16:52:21.013Z,101799.89
2018-05-05T16:54:48.477Z,101810.10
2018-05-05T16:57:15.864Z,101801.15
2018-05-05T16:59:43.266Z,101803.58
2018-05-05T17:02:10.655Z,101802.97
2018-05-05T17:04:38.069Z,101804.14
2018-05-05T17:07:05.453Z,101799.45
2018-05-05T17:09:32.917Z,101808.95
2018-05-05T17:12:00.369Z,101800.75
2018-05-05T17:14:27.829Z,101801.38
2018-05-05T17:16:55.236Z,101802.94
2018-05-05T17:19:22.661Z,101800.53
2018-05-05T17:21:50.069Z,101803.02
2018-05-05T17:24:17.459Z,101800.45
2018-05-05T17:26:44.849Z,101801.31
2018-05-05T17:29:12.307Z,101804.41
2018-05-05T17:31:39.695Z,101799.59
2018-05-05T17:34:07.109Z,101793.09
2018-05-05T17:36:34.545Z,101791.69
2018-05-05T17:39:01.949Z,101796.05
2018-05-05T17:41:29.373Z,101797.33
2018-05-05T17:43:56.815Z,101797.82
2018-05-05T17:46:24.231Z,101788.19
2018-05-05T17:48:51.629Z,101801.58
2018-05-05T17:51:19.031Z,101795.50
2018-05-05T17:53:46.425Z,101794.73
2018-05-05T17:56:13.922Z,101802.83
2018-05-05T17:58:41.317Z,101793.13
2018-05-05T18:01:08.729Z,101792.66
2018-05-05T18:03:36.124Z,101790.99
2018-05-05T18:06:03.542Z,101795.12
2018-05-05T18:08:30.969Z,101801.87
2018-05-05T18:10:58.393Z,101801.23
2018-05-05T18:13:25.832Z,101799.23
2018-05-05T18:15:53.233Z,101807.30
2018-05-05T18:18:20.639Z,101807.10
2018-05-05T18:20:48.062Z,101807.63
2018-05-05T18:23:15.449Z,101808.70
2018-05-05T18:25:42.908Z,101813.56
2018-05-05T18:28:10.314Z,101811.88
2018-05-05T18:30:37.809Z,101812.92
2018-05-05T18:33:05.193Z,101822.02
2018-05-05T18:35:32.593Z,101819.74
2018-05-05T18:37:59.992Z,101819.72
2018-05-05T18:40:27.453Z,101820.07
2018-05-05T18:42:54.888Z,101828.73
2018-05-05T18:45:22.295Z,101831.34
2018-05-05T18:47:49.700Z,101838.02
2018-05-05T18:50:17.097Z,101830.34
2018-05-05T18:52:44.493Z,101835.47
2018-05-05T18:55:11.902Z,101835.22
2018-05-05T18:57:39.296Z,101837.67
2018-05-05T19:00:06.718Z,101837.95
2018-05-05T19:02:34.109Z,101834.23
2018-05-05T19:05:01.577Z,101842.94
2018-05-05T19:07:29.015Z,101843.50
2018-05-05T19:09:56.408Z,101850.45
2018-05-05T19:12:23.809Z,101847.77
2018-05-05T19:14:51.206Z,101855.73
2018-05-05T19:17:18.595Z,101855.91
2018-05-05T19:19:46.025Z,101853.91
2018-05-05T19:22:13.482Z,101857.86
2018-05-05T19:24:40.932Z,101861.39
2018-05-05T19:27:08.381Z,101867.91
2018-05-05T19:29:35.789Z,101875.14
2018-05-05T19:32:03.198Z,101876.30
2018-05-05T19:34:30.683Z,101871.64
2018-05-05T19:36:58.096Z,101879.50
2018-05-05T19:39:25.529Z,101871.40
2018-05-05T19:41:52.898Z,101872.98
2018-05-05T19:44:20.385Z,101878.13
2018-05-05T19:46:47.906Z,101882.91
2018-05-05T19:49:15.300Z,101880.50
2018-05-05T19:51:42.698Z,101875.23
2018-05-05T19:54:10.110Z,101878.91
2018-05-05T19:56:37.511Z,101877.79
2018-05-05T19:59:04.932Z,101876.42
2018-05-05T20:01:32.349Z,101872.00
2018-05-05T20:03:59.766Z,101882.11
2018-05-05T20:06:27.164Z,101880.38
2018-05-05T20:08:54.572Z,101882.53
2018-05-05T20:11:21.973Z,101886.78
2018-05-05T20:13:49.465Z,101887.44
2018-05-05T20:16:16.866Z,101891.50
2018-05-05T20:18:44.276Z,101894.51
2018-05-05T20:21:11.677Z,101895.46
2018-05-05T20:23:39.075Z,101891.30
2018-05-05T20:26:06.555Z,101892.79
2018-05-05T20:28:34.006Z,101893.23
2018-05-05T20:31:01.412Z,101894.45
2018-05-05T20:33:28.896Z,101890.27
2018-05-05T20:35:56.378Z,101891.63
2018-05-05T20:38:23.825Z,101893.59
2018-05-05T20:40:51.230Z,101886.19
2018-05-05T20:43:18.634Z,101888.73
2018-05-05T20:45:46.128Z,101887.34
2018-05-05T20:48:13.561Z,101890.99
2018-05-05T20:50:40.962Z,101897.09
2018-05-05T20:53:08.365Z,101904.03
2018-05-05T20:55:35.863Z,101903.16
2018-05-05T20:58:03.267Z,101903.30
2018-05-05T21:00:30.764Z,101902.69
2018-05-05T21:02:58.148Z,101901.49
2018-05-05T21:05:25.540Z,101907.13
2018-05-05T21:07:53.009Z,101904.69
2018-05-05T21:10:20.424Z,101907.55
2018-05-05T21:12:47.805Z,101906.00
2018-05-05T21:15:15.281Z,101909.91
2018-05-05T21:17:42.732Z,101909.46
2018-05-05T21:20:10.168Z,101912.06
2018-05-05T21:22:37.560Z,101913.49
2018-05-05T21:25:05.010Z,101912.05
2018-05-05T21:27:32.397Z,101910.73
2018-05-05T21:29:59.941Z,101904.73
2018-05-05T21:32:27.374Z,101902.78
2018-05-05T21:34:54.775Z,101900.89
2018-05-05T21:37:22.189Z,101908.67
2018-05-05T21:39:49.638Z,101911.25
2018-05-05T21:42:17.041Z,101906.31
2018-05-05T21:44:44.504Z,101910.80
2018-05-05T21:47:11.858Z,101912.98
2018-05-05T21:49:39.241Z,101919.16
2018-05-05T21:52:06.734Z,101918.37
2018-05-05T21:54:34.116Z,101920.41
2018-05-05T21:57:01.530Z,101917.28
2018-05-05T21:59:29.013Z,101918.38
2018-05-05T22:01:56.474Z,101917.40
2018-05-05T22:04:23.886Z,101910.80
2018-05-05T22:06:51.360Z,101914.02
2018-05-05T22:09:18.729Z,101914.57
2018-05-05T22:11:46.158Z,101915.03
2018-05-05T22:14:13.549Z,101912.50
2018-05-05T22:16:40.964Z,101919.47
2018-05-05T22:19:08.362Z,101925.57
2018-05-05T22:21:35.783Z,101913.25
2018-05-05T22:24:03.162Z,101919.02
2018-05-05T22:26:30.554Z,101918.72
2018-05-05T22:28:57.989Z,101921.22
2018-05-05T22:31:25.387Z,101925.56
2018-05-05T22:33:52.848Z,101923.80
2018-05-05T22:36:20.196Z,101917.05
2018-05-05T22:38:47.698Z,101918.70
2018-05-05T22:41:15.103Z,101924.27
2018-05-05T22:43:42.502Z,101917.39
2018-05-05T22:46:09.911Z,101920.70
2018-05-05T22:48:37.432Z,101918.68
2018-05-05T22:51:04.819Z,101922.12
2018-05-05T22:53:32.205Z,101925.73
2018-05-05T22:55:59.604Z,101921.64
2018-05-05T22:58:27.160Z,101921.56
2018-05-05T23:00:54.565Z,101917.30
2018-05-05T23:03:22.050Z,101917.30
2018-05-05T23:05:49.457Z,101914.64
2018-05-05T23:08:16.843Z,101906.98
2018-05-05T23:10:44.264Z,101911.13
2018-05-05T23:13:11.673Z,101911.95
2018-05-05T23:15:39.113Z,101912.68
2018-05-05T23:18:06.529Z,101917.17
2018-05-05T23:20:33.924Z,101915.88
2018-05-05T23:23:01.324Z,101916.56
2018-05-05T23:25:28.741Z,101915.73
2018-05-05T23:27:56.227Z,101916.06
2018-05-05T23:30:23.660Z,101919.38
2018-05-05T23:32:51.121Z,101907.98
2018-05-05T23:35:18.521Z,101914.01
2018-05-05T23:37:46.043Z,101914.09
2018-05-05T23:40:13.443Z,101914.66
2018-05-05T23:42:40.839Z,101908.02
2018-05-05T23:45:08.221Z,101908.13
2018-05-05T23:47:35.649Z,101914.92
2018-05-05T23:50:03.057Z,101911.22
2018-05-05T23:52:30.559Z,101913.70
2018-05-05T23:54:57.953Z,101915.50
2018-05-05T23:57:25.336Z,101919.28
2018-05-05T23:59:52.759Z,101909.73
